Weather at Dragoman Airstrip

Public forecast

Using degrees Celsius for public forecast. Weather courtesy of forecast.io.

Closest aviation weather report (METAR) to Dragoman Airstrip

Closest report is Sofia Airport, 24.0 nm (44.5 km) SE.

2024/06/20 18:30 (retrieved 24 minutes ago)

LBSF 201830Z AUTO VRB01KT 9999 NCD 26/16 Q1019 NOSIG

Closest aviation forecast (TAF) to Dragoman Airstrip

Closest forecast is Sofia Airport, 24.0 nm (44.5 km) SE.

2024/06/20 18:18 (retrieved 36 minutes ago)

TAF LBSF 201700Z 2018/2118 04010KT CAVOK BECMG 2018/2020 VRB04KT BECMG 2107/2109 09010KT